createdAt,value
2023-04-10T00:01:26.962Z,100614.88
2023-04-10T00:03:58.406Z,100610.88
2023-04-10T00:06:29.866Z,100609.44
2023-04-10T00:09:01.021Z,100615.31
2023-04-10T00:11:32.066Z,100606.53
2023-04-10T00:14:03.816Z,100606.09
2023-04-10T00:16:35.444Z,100606.31
2023-04-10T00:19:06.028Z,100605.78
2023-04-10T00:21:36.473Z,100587.53
2023-04-10T00:24:07.273Z,100589.75
2023-04-10T00:26:38.876Z,100593.75
2023-04-10T00:29:09.796Z,100603.06
2023-04-10T00:31:41.016Z,100609.53
2023-04-10T00:34:12.131Z,100610.38
2023-04-10T00:36:43.179Z,100598.00
2023-04-10T00:39:14.335Z,100596.25
2023-04-10T00:41:45.062Z,100600.25
2023-04-10T00:44:15.448Z,100606.09
2023-04-10T00:46:46.064Z,100615.66
2023-04-10T00:49:16.351Z,100605.25
2023-04-10T00:51:46.959Z,100601.72
2023-04-10T00:54:17.640Z,100611.44
2023-04-10T00:56:51.787Z,100614.91
2023-04-10T00:59:23.152Z,100613.75
2023-04-10T01:01:54.156Z,100617.66
2023-04-10T01:04:25.631Z,100616.34
2023-04-10T01:07:08.569Z,100623.34
2023-04-10T01:10:04.993Z,100618.13
2023-04-10T01:12:57.534Z,100617.81
2023-04-10T01:15:31.403Z,100622.00
2023-04-10T01:18:19.054Z,100610.91
2023-04-10T01:20:49.540Z,100614.44
2023-04-10T01:23:56.680Z,100603.75
2023-04-10T01:26:53.163Z,100616.66
2023-04-10T01:29:28.379Z,100609.66
2023-04-10T01:32:16.040Z,100620.25
2023-04-10T01:34:49.832Z,100615.53
2023-04-10T01:37:25.628Z,100607.84
2023-04-10T01:40:08.687Z,100615.91
2023-04-10T01:42:54.576Z,100605.13
2023-04-10T01:45:31.210Z,100612.13
2023-04-10T01:48:02.689Z,100610.41
2023-04-10T01:50:34.657Z,100616.34
2023-04-10T01:53:08.493Z,100605.97
2023-04-10T01:55:40.950Z,100592.75
2023-04-10T01:58:13.776Z,100584.69
2023-04-10T02:00:46.088Z,100591.28
2023-04-10T02:03:17.665Z,100602.19
2023-04-10T02:06:09.325Z,100600.53
2023-04-10T02:08:44.543Z,100598.94
2023-04-10T02:11:33.325Z,100563.00
2023-04-10T02:14:09.600Z,100547.28
2023-04-10T02:16:42.323Z,100540.66
2023-04-10T02:19:16.062Z,100543.06
2023-04-10T02:21:48.674Z,100533.03
2023-04-10T02:24:19.221Z,100523.38
2023-04-10T02:26:51.055Z,100517.81
2023-04-10T02:29:22.318Z,100479.31
2023-04-10T02:31:53.010Z,100450.81
2023-04-10T02:34:23.382Z,100430.69
2023-04-10T02:36:54.166Z,100442.84
2023-04-10T02:39:24.808Z,100459.50
2023-04-10T02:41:55.427Z,100462.00
2023-04-10T02:44:26.174Z,100479.66
2023-04-10T02:46:57.220Z,100489.19
2023-04-10T02:49:28.771Z,100508.28
2023-04-10T02:52:00.254Z,100515.31
2023-04-10T02:54:30.700Z,100515.06
2023-04-10T02:57:01.925Z,100510.56
2023-04-10T02:59:32.483Z,100504.38
2023-04-10T03:02:04.013Z,100498.19
2023-04-10T03:04:37.667Z,100490.31
2023-04-10T03:07:08.225Z,100493.78
2023-04-10T03:09:41.104Z,100498.91
2023-04-10T03:12:11.753Z,100492.81
2023-04-10T03:14:42.992Z,100487.50
2023-04-10T03:17:13.797Z,100487.50
2023-04-10T03:19:44.292Z,100486.22
2023-04-10T03:22:15.086Z,100493.97
2023-04-10T03:24:46.251Z,100498.19
2023-04-10T03:27:17.529Z,100494.41
2023-04-10T03:29:48.138Z,100497.03
2023-04-10T03:32:18.432Z,100483.91
2023-04-10T03:34:49.125Z,100484.19
2023-04-10T03:37:20.667Z,100472.72
2023-04-10T03:39:51.479Z,100477.06
2023-04-10T03:42:22.164Z,100474.44
2023-04-10T03:44:53.342Z,100466.66
2023-04-10T03:47:23.887Z,100454.06
2023-04-10T03:49:56.101Z,100453.84
2023-04-10T03:52:27.667Z,100441.28
2023-04-10T03:54:59.300Z,100442.47
2023-04-10T03:57:31.135Z,100434.47
2023-04-10T04:00:07.484Z,100426.94
2023-04-10T04:02:53.445Z,100431.34
2023-04-10T04:05:58.781Z,100429.69
2023-04-10T04:08:53.848Z,100428.09
2023-04-10T04:11:41.948Z,100410.59
2023-04-10T04:14:40.013Z,100414.03
2023-04-10T04:17:29.748Z,100406.91
2023-04-10T04:20:10.280Z,100395.69
2023-04-10T04:22:47.797Z,100379.94
2023-04-10T04:25:36.221Z,100376.50
2023-04-10T04:28:19.016Z,100390.56
2023-04-10T04:31:09.662Z,100396.50
2023-04-10T04:33:58.184Z,100387.72
2023-04-10T04:36:46.454Z,100400.00
2023-04-10T04:39:46.357Z,100400.34
2023-04-10T04:42:26.017Z,100396.97
2023-04-10T04:45:26.355Z,100374.94
2023-04-10T04:48:19.783Z,100360.25
2023-04-10T04:51:19.030Z,100369.09
2023-04-10T04:53:58.682Z,100382.06
2023-04-10T04:56:48.520Z,100369.91
2023-04-10T04:59:32.930Z,100354.06
2023-04-10T05:02:17.703Z,100358.47
2023-04-10T05:05:05.841Z,100356.81
2023-04-10T05:08:02.418Z,100350.72
2023-04-10T05:10:52.872Z,100340.13
2023-04-10T05:13:40.820Z,100341.91
2023-04-10T05:16:38.274Z,100338.34
2023-04-10T05:19:20.669Z,100338.34
2023-04-10T05:21:53.675Z,100337.41
2023-04-10T05:24:36.728Z,100333.94
2023-04-10T05:27:19.936Z,100333.00
2023-04-10T05:30:22.335Z,100327.75
2023-04-10T05:33:25.105Z,100317.28
2023-04-10T05:36:15.015Z,100316.31
2023-04-10T05:39:01.839Z,100306.53
2023-04-10T05:41:50.652Z,100301.53
2023-04-10T05:44:48.148Z,100296.28
2023-04-10T05:47:48.602Z,100307.63
2023-04-10T05:50:30.574Z,100291.63
2023-04-10T05:53:34.322Z,100291.75
2023-04-10T05:56:07.905Z,100296.03
2023-04-10T05:59:10.379Z,100290.09
2023-04-10T06:02:20.660Z,100288.19
2023-04-10T06:04:52.493Z,100280.31
2023-04-10T06:07:23.809Z,100271.53
2023-04-10T06:09:54.217Z,100274.84
2023-04-10T06:12:25.061Z,100275.81
2023-04-10T06:14:56.126Z,100271.41
2023-04-10T06:17:27.426Z,100273.91
2023-04-10T06:19:58.349Z,100267.81
2023-04-10T06:22:30.159Z,100271.28
2023-04-10T06:25:01.249Z,100254.59
2023-04-10T06:27:31.891Z,100260.59
2023-04-10T06:30:02.797Z,100267.06
2023-04-10T06:32:33.519Z,100256.09
2023-04-10T06:35:04.412Z,100260.88
2023-04-10T06:37:35.095Z,100273.16
2023-04-10T06:40:17.988Z,100264.16
2023-04-10T06:42:48.487Z,100255.34
2023-04-10T06:45:32.056Z,100258.47
2023-04-10T06:48:02.506Z,100261.44
2023-04-10T06:50:33.547Z,100271.69
2023-04-10T06:53:04.072Z,100274.91
2023-04-10T06:55:34.448Z,100267.97
2023-04-10T06:58:04.803Z,100258.56
2023-04-10T07:00:35.209Z,100260.09
2023-04-10T07:03:05.950Z,100263.81
2023-04-10T07:05:40.827Z,100262.25
2023-04-10T07:08:13.375Z,100257.09
2023-04-10T07:10:43.612Z,100246.13
2023-04-10T07:13:13.966Z,100248.47
2023-04-10T07:15:44.396Z,100247.91
2023-04-10T07:18:15.315Z,100243.97
2023-04-10T07:20:45.669Z,100236.66
2023-04-10T07:23:16.231Z,100233.06
2023-04-10T07:25:46.535Z,100241.78
2023-04-10T07:28:16.893Z,100243.56
2023-04-10T07:30:48.111Z,100242.25
2023-04-10T07:33:19.571Z,100235.78
2023-04-10T07:35:50.085Z,100225.72
2023-04-10T07:38:20.931Z,100224.66
2023-04-10T07:40:51.420Z,100215.56
2023-04-10T07:43:21.951Z,100207.09
2023-04-10T07:45:52.461Z,100209.44
2023-04-10T07:48:23.220Z,100207.19
2023-04-10T07:50:53.515Z,100215.88
2023-04-10T07:53:23.966Z,100205.22
2023-04-10T07:55:55.042Z,100213.06
2023-04-10T07:58:25.385Z,100219.41
2023-04-10T08:00:56.286Z,100220.69
2023-04-10T08:03:29.223Z,100212.72
2023-04-10T08:05:59.743Z,100215.72
2023-04-10T08:08:30.376Z,100219.09
2023-04-10T08:11:00.888Z,100207.38
2023-04-10T08:13:31.333Z,100207.63
2023-04-10T08:16:02.750Z,100206.66
2023-04-10T08:18:33.238Z,100188.19
2023-04-10T08:21:03.715Z,100181.97
2023-04-10T08:23:34.864Z,100175.56
2023-04-10T08:26:05.146Z,100182.72
2023-04-10T08:28:35.480Z,100185.22
2023-04-10T08:31:06.004Z,100190.47
2023-04-10T08:33:37.405Z,100190.13
2023-04-10T08:36:08.213Z,100193.94
2023-04-10T08:38:38.827Z,100195.66
2023-04-10T08:41:11.808Z,100201.13
2023-04-10T08:43:42.557Z,100199.56
2023-04-10T08:46:13.515Z,100203.88
2023-04-10T08:49:04.350Z,100206.06
2023-04-10T08:52:14.641Z,100201.72
2023-04-10T08:54:50.277Z,100206.28
2023-04-10T08:57:22.477Z,100198.63
2023-04-10T08:59:53.579Z,100200.44
2023-04-10T09:02:25.001Z,100192.81
2023-04-10T09:04:57.838Z,100207.72
2023-04-10T09:07:29.190Z,100205.22
2023-04-10T09:09:59.605Z,100202.00
2023-04-10T09:12:29.962Z,100211.66
2023-04-10T09:15:00.642Z,100213.72
2023-04-10T09:17:31.362Z,100214.66
2023-04-10T09:20:01.883Z,100209.41
2023-04-10T09:22:34.293Z,100213.22
2023-04-10T09:25:06.471Z,100192.22
2023-04-10T09:27:40.020Z,100197.59
2023-04-10T09:30:10.892Z,100203.09
2023-04-10T09:32:46.060Z,100206.66
2023-04-10T09:35:17.790Z,100216.44
2023-04-10T09:37:48.543Z,100211.44
2023-04-10T09:40:25.903Z,100219.31
2023-04-10T09:42:59.877Z,100221.44
2023-04-10T09:45:49.683Z,100200.72
2023-04-10T09:48:20.870Z,100204.28
2023-04-10T09:50:51.603Z,100200.94
2023-04-10T09:53:23.384Z,100209.78
2023-04-10T09:55:53.823Z,100201.16
2023-04-10T09:58:26.829Z,100203.91
2023-04-10T10:00:57.441Z,100202.25
2023-04-10T10:03:28.639Z,100195.66
2023-04-10T10:05:59.137Z,100209.63
2023-04-10T10:08:29.805Z,100205.31
2023-04-10T10:11:02.432Z,100197.56
2023-04-10T10:13:32.837Z,100196.03
2023-04-10T10:16:17.477Z,100194.47
2023-04-10T10:19:03.479Z,100192.06
2023-04-10T10:21:35.880Z,100186.81
2023-04-10T10:24:11.121Z,100198.16
2023-04-10T10:26:46.218Z,100196.59
2023-04-10T10:29:20.034Z,100205.44
2023-04-10T10:31:51.164Z,100202.91
2023-04-10T10:34:23.316Z,100198.75
2023-04-10T10:36:53.793Z,100201.50
2023-04-10T10:39:27.324Z,100207.66
2023-04-10T10:42:19.517Z,100206.00
2023-04-10T10:45:19.034Z,100211.50
2023-04-10T10:47:55.314Z,100211.50
2023-04-10T10:50:25.786Z,100208.13
2023-04-10T10:53:00.421Z,100205.66
2023-04-10T10:55:37.208Z,100198.84
2023-04-10T10:58:10.407Z,100201.59
2023-04-10T11:00:56.457Z,100203.50
2023-04-10T11:03:27.074Z,100201.72
2023-04-10T11:06:13.856Z,100205.25
2023-04-10T11:08:49.536Z,100202.75
2023-04-10T11:11:28.833Z,100220.28
2023-04-10T11:13:59.155Z,100216.94
2023-04-10T11:16:37.251Z,100227.53
2023-04-10T11:19:17.005Z,100221.59
2023-04-10T11:22:10.511Z,100226.97
2023-04-10T11:24:57.944Z,100216.56
2023-04-10T11:27:53.352Z,100213.09
2023-04-10T11:30:35.509Z,100219.31
2023-04-10T11:33:07.656Z,100215.03
2023-04-10T11:35:38.327Z,100218.56
2023-04-10T11:38:19.690Z,100213.31
2023-04-10T11:41:01.319Z,100212.63
2023-04-10T11:43:32.181Z,100217.16
2023-04-10T11:46:08.984Z,100217.97
2023-04-10T11:48:39.888Z,100205.94
2023-04-10T11:51:15.551Z,100205.94
2023-04-10T11:53:46.415Z,100211.41
2023-04-10T11:56:23.998Z,100214.03
2023-04-10T11:58:55.875Z,100203.56
2023-04-10T12:01:26.704Z,100198.31
2023-04-10T12:03:57.342Z,100205.44
2023-04-10T12:06:29.204Z,100209.00
2023-04-10T12:08:59.686Z,100207.34
2023-04-10T12:11:31.168Z,100212.59
2023-04-10T12:14:01.607Z,100196.13
2023-04-10T12:16:34.570Z,100196.25
2023-04-10T12:19:05.126Z,100200.66
2023-04-10T12:21:40.176Z,100193.75
2023-04-10T12:24:10.602Z,100196.38
2023-04-10T12:26:49.043Z,100207.78
2023-04-10T12:29:20.637Z,100203.50
2023-04-10T12:31:51.027Z,100203.50
2023-04-10T12:34:21.773Z,100201.84
2023-04-10T12:36:55.622Z,100195.75
2023-04-10T12:39:28.313Z,100209.69
2023-04-10T12:42:20.948Z,100189.69
2023-04-10T12:44:54.321Z,100175.84
2023-04-10T12:47:26.769Z,100174.06
2023-04-10T12:50:15.866Z,100170.72
2023-04-10T12:53:12.206Z,100170.84
2023-04-10T12:55:58.688Z,100166.53
2023-04-10T12:58:29.736Z,100172.63
2023-04-10T13:01:15.658Z,100173.56
2023-04-10T13:03:48.143Z,100164.03
2023-04-10T13:06:18.418Z,100148.44
2023-04-10T13:08:48.698Z,100132.84
2023-04-10T13:11:19.204Z,100125.91
2023-04-10T13:13:51.257Z,100131.97
2023-04-10T13:16:21.957Z,100173.06
2023-04-10T13:18:52.906Z,100194.16
2023-04-10T13:21:27.593Z,100208.31
2023-04-10T13:23:58.804Z,100210.22
2023-04-10T13:26:29.576Z,100195.31
2023-04-10T13:28:59.962Z,100170.09
2023-04-10T13:31:30.493Z,100168.41
2023-04-10T13:34:01.129Z,100180.56
2023-04-10T13:36:33.311Z,100178.91
2023-04-10T13:39:03.686Z,100169.34
2023-04-10T13:41:34.034Z,100171.09
2023-04-10T13:44:04.393Z,100181.69
2023-04-10T13:46:35.616Z,100186.22
2023-04-10T13:49:06.580Z,100201.94
2023-04-10T13:51:37.053Z,100196.78
2023-04-10T13:54:08.003Z,100196.78
2023-04-10T13:56:38.715Z,100198.50
2023-04-10T13:59:09.576Z,100202.16
2023-04-10T14:01:40.597Z,100190.84
2023-04-10T14:04:11.100Z,100197.88
2023-04-10T14:06:42.243Z,100206.69
2023-04-10T14:09:13.627Z,100190.09
2023-04-10T14:11:43.971Z,100194.50
2023-04-10T14:14:14.495Z,100207.72
2023-04-10T14:16:44.929Z,100205.94
2023-04-10T14:19:15.418Z,100219.03
2023-04-10T14:21:46.425Z,100223.56
2023-04-10T14:24:16.829Z,100216.53
2023-04-10T14:26:47.205Z,100218.41
2023-04-10T14:29:20.180Z,100217.59
2023-04-10T14:31:57.891Z,100216.75
2023-04-10T14:34:29.531Z,100213.31
2023-04-10T14:37:00.282Z,100211.63
2023-04-10T14:39:30.945Z,100205.56
2023-04-10T14:42:03.580Z,100201.38
2023-04-10T14:44:34.155Z,100194.47
2023-04-10T14:47:07.665Z,100192.69
2023-04-10T14:49:38.064Z,100191.84
2023-04-10T14:52:08.644Z,100198.03
2023-04-10T14:54:39.146Z,100189.34
2023-04-10T14:57:11.296Z,100201.63
2023-04-10T14:59:41.655Z,100186.81
2023-04-10T15:02:12.124Z,100189.44
2023-04-10T15:04:42.693Z,100190.41
2023-04-10T15:07:13.076Z,100195.75
2023-04-10T15:09:45.341Z,100203.59
2023-04-10T15:12:15.715Z,100209.69
2023-04-10T15:14:46.749Z,100215.03
2023-04-10T15:17:17.259Z,100218.56
2023-04-10T15:19:47.659Z,100226.56
2023-04-10T15:22:21.041Z,100230.97
2023-04-10T15:24:51.423Z,100230.13
2023-04-10T15:27:24.968Z,100237.16
2023-04-10T15:29:55.656Z,100231.16
2023-04-10T15:32:26.092Z,100238.19
2023-04-10T15:34:56.570Z,100239.16
2023-04-10T15:37:26.961Z,100239.03
2023-04-10T15:39:57.401Z,100251.28
2023-04-10T15:42:27.800Z,100254.03
2023-04-10T15:44:58.292Z,100243.75
2023-04-10T15:47:29.426Z,100235.91
2023-04-10T15:50:01.107Z,100228.16
2023-04-10T15:52:33.225Z,100215.91
2023-04-10T15:55:03.627Z,100222.09
2023-04-10T15:57:34.546Z,100221.13
2023-04-10T16:00:07.016Z,100222.94
2023-04-10T16:02:37.625Z,100228.28
2023-04-10T16:05:10.697Z,100225.75
2023-04-10T16:07:45.011Z,100227.44
2023-04-10T16:10:15.428Z,100214.56
2023-04-10T16:12:45.753Z,100215.28
2023-04-10T16:15:16.234Z,100210.28
2023-04-10T16:17:46.909Z,100220.63
2023-04-10T16:20:17.389Z,100238.13
2023-04-10T16:22:47.931Z,100215.50
2023-04-10T16:25:19.637Z,100208.59
2023-04-10T16:27:55.890Z,100214.69
2023-04-10T16:30:26.425Z,100205.97
2023-04-10T16:32:57.585Z,100194.66
2023-04-10T16:35:28.646Z,100182.53
2023-04-10T16:37:58.931Z,100189.41
2023-04-10T16:40:33.635Z,100191.31
2023-04-10T16:43:04.651Z,100189.75
2023-04-10T16:45:35.129Z,100189.53
2023-04-10T16:48:05.730Z,100200.13
2023-04-10T16:50:39.373Z,100202.84
2023-04-10T16:53:09.977Z,100196.78
2023-04-10T16:55:40.410Z,100198.56
2023-04-10T16:58:10.925Z,100201.16
2023-04-10T17:00:41.373Z,100207.38
2023-04-10T17:03:12.786Z,100210.81
2023-04-10T17:05:43.227Z,100200.47
2023-04-10T17:08:14.596Z,100210.81
2023-04-10T17:10:45.052Z,100221.41
2023-04-10T17:13:15.353Z,100221.59
2023-04-10T17:15:45.719Z,100219.81
2023-04-10T17:18:16.677Z,100221.50
2023-04-10T17:20:48.318Z,100219.00
2023-04-10T17:23:19.015Z,100220.06
2023-04-10T17:25:49.755Z,100220.13
2023-04-10T17:28:20.502Z,100238.25
2023-04-10T17:30:51.145Z,100233.16
2023-04-10T17:33:23.192Z,100233.03
2023-04-10T17:35:54.484Z,100231.34
2023-04-10T17:38:25.618Z,100225.28
2023-04-10T17:40:56.009Z,100241.91
2023-04-10T17:43:26.557Z,100243.63
2023-04-10T17:45:57.127Z,100238.47
2023-04-10T17:48:27.680Z,100236.78
2023-04-10T17:50:58.571Z,100242.03
2023-04-10T17:53:29.040Z,100225.63
2023-04-10T17:55:59.603Z,100223.91
2023-04-10T17:58:29.947Z,100226.44
2023-04-10T18:01:00.604Z,100220.47
2023-04-10T18:03:30.984Z,100219.75
2023-04-10T18:06:01.394Z,100218.91
2023-04-10T18:08:31.893Z,100220.59
2023-04-10T18:11:02.217Z,100218.81
2023-04-10T18:13:32.585Z,100214.50
2023-04-10T18:16:06.281Z,100206.66
2023-04-10T18:18:37.377Z,100183.94
2023-04-10T18:21:09.353Z,100172.66
2023-04-10T18:23:40.970Z,100166.66
2023-04-10T18:26:11.663Z,100176.31
2023-04-10T18:28:43.593Z,100162.28
2023-04-10T18:31:17.449Z,100172.84
2023-04-10T18:33:56.198Z,100171.06
2023-04-10T18:36:34.653Z,100151.91
2023-04-10T18:39:06.235Z,100138.00
2023-04-10T18:41:36.812Z,100129.31
2023-04-10T18:44:07.825Z,100125.88
2023-04-10T18:46:38.783Z,100125.03
2023-04-10T18:49:09.339Z,100120.63
2023-04-10T18:51:40.920Z,100118.84
2023-04-10T18:54:11.360Z,100129.31
2023-04-10T18:56:41.834Z,100123.25
2023-04-10T18:59:12.285Z,100124.09
2023-04-10T19:01:43.698Z,100116.22
2023-04-10T19:04:14.752Z,100124.09
2023-04-10T19:06:47.600Z,100128.47
2023-04-10T19:09:18.187Z,100130.16
2023-04-10T19:11:48.836Z,100121.47
2023-04-10T19:14:19.225Z,100128.47
2023-04-10T19:16:49.642Z,100119.91
2023-04-10T19:19:19.786Z,100112.06
2023-04-10T19:21:50.065Z,100098.03
2023-04-10T19:24:20.679Z,100102.53
2023-04-10T19:26:51.434Z,100095.50
2023-04-10T19:29:22.606Z,100089.44
2023-04-10T19:31:52.979Z,100090.28
2023-04-10T19:34:23.336Z,100099.06
2023-04-10T19:36:53.714Z,100100.03
2023-04-10T19:39:24.167Z,100095.75
2023-04-10T19:41:54.529Z,100078.25
2023-04-10T19:44:25.005Z,100090.38
2023-04-10T19:46:55.793Z,100102.66
2023-04-10T19:49:27.235Z,100094.91
2023-04-10T19:51:58.851Z,100090.50
2023-04-10T19:54:31.279Z,100066.13
2023-04-10T19:57:03.558Z,100046.13
2023-04-10T19:59:33.958Z,100039.22
2023-04-10T20:02:04.942Z,100054.09
2023-04-10T20:04:35.826Z,100079.41
2023-04-10T20:07:06.560Z,100090.84
2023-04-10T20:09:37.241Z,100070.75
2023-04-10T20:12:07.973Z,100072.53
2023-04-10T20:14:38.450Z,100075.16
2023-04-10T20:17:09.704Z,100067.28
2023-04-10T20:19:40.405Z,100086.56
2023-04-10T20:22:11.388Z,100092.72
2023-04-10T20:24:41.923Z,100095.31
2023-04-10T20:27:12.251Z,100085.72
2023-04-10T20:29:42.738Z,100071.78
2023-04-10T20:32:13.168Z,100058.81
2023-04-10T20:34:43.820Z,100061.44
2023-04-10T20:37:16.325Z,100068.47
2023-04-10T20:39:47.932Z,100087.47
2023-04-10T20:42:18.699Z,100066.66
2023-04-10T20:44:49.733Z,100060.59
2023-04-10T20:47:20.177Z,100044.06
2023-04-10T20:49:50.686Z,100038.84
2023-04-10T20:52:21.418Z,100024.09
2023-04-10T20:54:51.836Z,100021.56
2023-04-10T20:57:22.431Z,100034.66
2023-04-10T20:59:52.961Z,100027.75
2023-04-10T21:02:23.498Z,100024.44
2023-04-10T21:04:54.731Z,100027.03
2023-04-10T21:07:25.065Z,100038.34
2023-04-10T21:09:55.445Z,100043.66
2023-04-10T21:12:26.207Z,100033.19
2023-04-10T21:14:56.707Z,100042.00
2023-04-10T21:17:32.474Z,100045.34
2023-04-10T21:20:03.199Z,100041.16
2023-04-10T21:22:33.709Z,100050.69
2023-04-10T21:25:03.943Z,100049.84
2023-04-10T21:27:34.323Z,100034.97
2023-04-10T21:30:05.118Z,100023.69
2023-04-10T21:32:35.731Z,100029.75
2023-04-10T21:35:06.282Z,100030.69
2023-04-10T21:37:36.745Z,100030.69
2023-04-10T21:40:07.698Z,100032.50
2023-04-10T21:42:41.840Z,100031.53
2023-04-10T21:45:13.393Z,100034.28
2023-04-10T21:47:44.194Z,100038.69
2023-04-10T21:50:14.657Z,100044.84
2023-04-10T21:52:45.846Z,100035.94
2023-04-10T21:55:17.525Z,100040.47
2023-04-10T21:57:47.881Z,100029.88
2023-04-10T22:00:21.196Z,100001.22
2023-04-10T22:02:53.740Z,100018.69
2023-04-10T22:05:25.842Z,100011.69
2023-04-10T22:07:57.017Z,100013.34
2023-04-10T22:10:27.636Z,99995.03
2023-04-10T22:12:58.092Z,99984.69
2023-04-10T22:15:29.081Z,99970.78
2023-04-10T22:17:59.842Z,99986.34
2023-04-10T22:20:30.514Z,99988.16
2023-04-10T22:23:01.682Z,99984.56
2023-04-10T22:25:32.453Z,99986.25
2023-04-10T22:28:02.983Z,99984.38
2023-04-10T22:30:33.800Z,99980.66
2023-04-10T22:33:04.470Z,99967.03
2023-04-10T22:35:35.159Z,99965.06
2023-04-10T22:38:05.708Z,99958.69
2023-04-10T22:40:37.242Z,99950.16
2023-04-10T22:43:07.854Z,99946.72
2023-04-10T22:45:38.281Z,99935.53
2023-04-10T22:48:08.830Z,99931.41
2023-04-10T22:50:39.826Z,99936.41
2023-04-10T22:53:14.851Z,99939.72
2023-04-10T22:55:45.207Z,99943.63
2023-04-10T22:58:15.786Z,99939.34
2023-04-10T23:00:46.222Z,99920.19
2023-04-10T23:03:16.847Z,99897.72
2023-04-10T23:05:48.474Z,99876.63
2023-04-10T23:08:20.109Z,99883.31
2023-04-10T23:10:50.811Z,99889.84
2023-04-10T23:13:21.193Z,99894.50
2023-04-10T23:15:55.898Z,99881.63
2023-04-10T23:18:26.864Z,99869.50
2023-04-10T23:20:57.127Z,99873.66
2023-04-10T23:23:27.769Z,99876.25
2023-04-10T23:26:04.302Z,99887.34
2023-04-10T23:28:35.794Z,99885.44
2023-04-10T23:31:08.716Z,99886.16
2023-04-10T23:33:41.227Z,99886.84
2023-04-10T23:36:12.825Z,99872.69
2023-04-10T23:38:46.306Z,99854.09
2023-04-10T23:41:17.074Z,99827.00
2023-04-10T23:43:47.481Z,99826.88
2023-04-10T23:46:18.952Z,99815.31
2023-04-10T23:48:50.689Z,99805.44
2023-04-10T23:51:22.330Z,99815.81
2023-04-10T23:53:52.830Z,99831.38
2023-04-10T23:56:29.517Z,99827.81
2023-04-10T23:59:00.756Z,99823.41
